Texas General Land Office
 Texas General Land Office
 George P. Bush, Commissioner

 Oil Spill Prevention
 & Response

Texas Automated Buoy System
Real Time Ocean Observations
Supporting Oil Spill Prevention and
Response since 1995
Geochemical and Environmental Research Group

TABS Buoy F -- Texas Automated Buoy System

TABS Buoy F Conditions at 07/21/2017 23:30 UTC (07/21/2017 18:30 CDT)
28° 50.5500'N   94° 14.4960'W
AA3900 DCS - sensor depth 2m
Water Depth: 79 feet (24 meters)
Speed: 0.70 cm/s (0.01 kts) Direction: 2 °T (N) Water Temp: 2°C (36 °F)
System Voltage: 13.5 V Signal Strength: 0.0 dB Ping Count: 0
  


IMPORTANT: Notice to Mariners


Today's Velocity Data (download)

   Date   |  Time  |   East |   North|   Speed|  Dir | WaterT |
          |  (UTC) |  (cm/s)|  (cm/s)|  (cm/s)| (°T) |  (°C)  |
==========+========+========+========+========+======+========+
07/21/2017 05:00:00   -14.84    38.49    41.25  338.9   30.8
07/21/2017 05:30:00    -8.91    41.16    42.11  347.8   30.7
07/21/2017 06:00:00    -8.29    41.59    42.41  348.7   30.6
07/21/2017 06:30:00    -3.64    42.17    42.33  355.1   30.6
07/21/2017 07:00:00    -4.48    38.71    38.97  353.4   30.6
07/21/2017 07:30:00     0.25    38.39    38.39    0.4   30.6
07/21/2017 08:00:00     2.81    45.74    45.83    3.5   30.5
07/21/2017 08:00:00     3.00    43.27    43.37    4.0   30.8
07/21/2017 08:00:00     5.46    46.17    46.49    6.7   30.8
07/21/2017 08:00:00     6.51    47.47    47.91    7.8   30.8
07/21/2017 08:00:00     4.83    46.28    46.53    6.0   30.8
07/21/2017 08:30:00     6.87    46.23    46.74    8.5   30.8
07/21/2017 09:30:00     2.36     9.09     9.39   14.6    1.2
07/21/2017 10:00:00    11.52    50.29    51.59   12.9   30.6
07/21/2017 10:30:00     9.26    43.73    44.70   12.0   30.7
07/21/2017 11:00:00    29.71     3.45    29.91   83.4    1.2
07/21/2017 11:30:00    11.13    44.04    45.42   14.2   30.8
07/21/2017 12:00:00     9.70    42.97    44.05   12.7   30.8
07/21/2017 12:30:00     7.12    43.33    43.91    9.3   30.8
07/21/2017 13:00:00     4.18     0.84     4.26   78.6   30.9
07/21/2017 14:00:00    11.99    15.64    19.71   37.5   30.5
07/21/2017 14:30:00     9.03     0.65     9.05   85.9    1.2
07/21/2017 15:00:00     8.14    15.65    17.64   27.5   30.5
07/21/2017 16:00:00    11.69     2.50    11.95   77.9   30.6
07/21/2017 17:00:00    10.06     0.12    10.06   89.3   30.6
07/21/2017 18:00:00     6.29    -2.06     6.62  108.1   30.5
07/21/2017 18:30:00     4.00    -0.16     4.00   92.3    2.1
07/21/2017 20:00:00     2.77    -2.56     3.77  132.7   30.7
07/21/2017 21:00:00     0.00     0.00     0.00   90.0   -0.8
07/21/2017 21:30:00    -0.84   -10.26    10.29  184.7   31.0
07/21/2017 23:30:00     0.03     0.70     0.70    2.5    2.2



       
 

Today's Temperature - Salinity Data     (Download)


   Date   |  Time  |   Temp |   Cond |Salinity| Density|SoundVel|
          |  (UTC) |   (°C) | (ms/cm)|        | kg/m^3 |  (m/s) |
==========+========+========+========+========+========+========+